createdAt,value
2022-11-16T00:00:23.066Z,10.71
2022-11-16T00:01:23.217Z,10.70
2022-11-16T00:02:23.379Z,10.69
2022-11-16T00:03:23.457Z,10.68
2022-11-16T00:04:23.626Z,10.69
2022-11-16T00:05:28.158Z,10.69
2022-11-16T00:06:23.855Z,10.69
2022-11-16T00:07:24.069Z,10.69
2022-11-16T00:08:24.099Z,10.69
2022-11-16T00:09:24.284Z,10.70
2022-11-16T00:10:24.378Z,10.71
2022-11-16T00:11:24.504Z,10.72
2022-11-16T00:12:24.704Z,10.72
2022-11-16T00:13:24.788Z,10.71
2022-11-16T00:14:24.947Z,10.72
2022-11-16T00:15:25.034Z,10.72
2022-11-16T00:16:25.163Z,10.73
2022-11-16T00:17:25.303Z,10.74
2022-11-16T00:18:25.452Z,10.74
2022-11-16T00:19:25.633Z,10.75
2022-11-16T00:20:25.712Z,10.76
2022-11-16T00:21:25.841Z,10.77
2022-11-16T00:22:25.972Z,10.77
2022-11-16T00:23:26.121Z,10.77
2022-11-16T00:24:26.316Z,10.77
2022-11-16T00:25:26.411Z,10.77
2022-11-16T00:26:26.510Z,10.77
2022-11-16T00:27:26.643Z,10.77
2022-11-16T00:28:26.802Z,10.76
2022-11-16T00:29:26.946Z,10.75
2022-11-16T00:30:27.082Z,10.74
2022-11-16T00:31:27.222Z,10.72
2022-11-16T00:32:27.431Z,10.71
2022-11-16T00:33:27.468Z,10.70
2022-11-16T00:34:27.688Z,10.70
2022-11-16T00:35:27.718Z,10.70
2022-11-16T00:36:27.839Z,10.70
2022-11-16T00:37:27.967Z,10.71
2022-11-16T00:38:28.109Z,10.71
2022-11-16T00:39:28.268Z,10.70
2022-11-16T00:40:28.369Z,10.70
2022-11-16T00:41:28.503Z,10.69
2022-11-16T00:42:28.627Z,10.69
2022-11-16T00:43:28.749Z,10.69
2022-11-16T00:44:28.887Z,10.69
2022-11-16T00:45:29.017Z,10.69
2022-11-16T00:46:29.137Z,10.67
2022-11-16T00:47:29.265Z,10.65
2022-11-16T00:48:29.386Z,10.63
2022-11-16T00:49:29.575Z,10.62
2022-11-16T00:50:29.647Z,10.61
2022-11-16T00:51:29.796Z,10.60
2022-11-16T00:52:29.924Z,10.59
2022-11-16T00:53:30.055Z,10.59
2022-11-16T00:54:30.204Z,10.59
2022-11-16T00:55:30.334Z,10.59
2022-11-16T00:56:30.474Z,10.58
2022-11-16T00:57:30.616Z,10.58
2022-11-16T00:58:31.056Z,10.58
2022-11-16T00:59:30.915Z,10.57
2022-11-16T01:00:31.003Z,10.57
2022-11-16T01:01:31.202Z,10.57
2022-11-16T01:02:31.299Z,10.57
2022-11-16T01:03:31.443Z,10.58
2022-11-16T01:04:31.542Z,10.60
2022-11-16T01:05:31.691Z,10.62
2022-11-16T01:06:31.813Z,10.63
2022-11-16T01:07:31.999Z,10.65
2022-11-16T01:08:32.596Z,10.67
2022-11-16T01:09:32.222Z,10.68
2022-11-16T01:10:32.341Z,10.70
2022-11-16T01:11:32.475Z,10.71
2022-11-16T01:12:32.695Z,10.72
2022-11-16T01:13:32.737Z,10.73
2022-11-16T01:14:32.881Z,10.74
2022-11-16T01:15:33.019Z,10.76
2022-11-16T01:16:33.151Z,10.77
2022-11-16T01:17:33.271Z,10.79
2022-11-16T01:18:33.603Z,10.81
2022-11-16T01:19:33.520Z,10.82
2022-11-16T01:20:33.658Z,10.83
2022-11-16T01:21:33.786Z,10.83
2022-11-16T01:22:33.941Z,10.84
2022-11-16T01:23:34.079Z,10.86
2022-11-16T01:24:34.180Z,10.86
2022-11-16T01:25:34.307Z,10.87
2022-11-16T01:26:34.449Z,10.87
2022-11-16T01:27:34.600Z,10.87
2022-11-16T01:28:35.010Z,10.87
2022-11-16T01:29:34.870Z,10.87
2022-11-16T01:30:35.014Z,10.86
2022-11-16T01:31:35.138Z,10.85
2022-11-16T01:32:35.296Z,10.85
2022-11-16T01:33:35.425Z,10.84
2022-11-16T01:34:35.535Z,10.84
2022-11-16T01:35:35.665Z,10.84
2022-11-16T01:36:35.797Z,10.84
2022-11-16T01:37:35.976Z,10.83
2022-11-16T01:38:36.563Z,10.82
2022-11-16T01:39:36.172Z,10.81
2022-11-16T01:40:36.305Z,10.81
2022-11-16T01:41:36.433Z,10.81
2022-11-16T01:42:36.576Z,10.81
2022-11-16T01:43:36.742Z,10.82
2022-11-16T01:44:36.844Z,10.83
2022-11-16T01:45:36.974Z,10.83
2022-11-16T01:46:37.104Z,10.83
2022-11-16T01:47:37.223Z,10.83
2022-11-16T01:48:37.790Z,10.83
2022-11-16T01:49:37.483Z,10.84
2022-11-16T01:50:37.632Z,10.85
2022-11-16T01:51:37.770Z,10.86
2022-11-16T01:52:37.933Z,10.87
2022-11-16T01:53:38.073Z,10.87
2022-11-16T01:54:38.150Z,10.88
2022-11-16T01:55:38.282Z,10.88
2022-11-16T01:56:38.410Z,10.89
2022-11-16T01:57:38.553Z,10.88
2022-11-16T01:58:38.720Z,10.88
2022-11-16T01:59:38.821Z,10.86
2022-11-16T02:00:38.974Z,10.85
2022-11-16T02:01:39.186Z,10.85
2022-11-16T02:02:39.261Z,10.84
2022-11-16T02:03:39.373Z,10.83
2022-11-16T02:04:39.468Z,10.82
2022-11-16T02:05:39.598Z,10.82
2022-11-16T02:06:39.731Z,10.81
2022-11-16T02:07:39.858Z,10.80
2022-11-16T02:08:40.009Z,10.79
2022-11-16T02:09:40.108Z,10.78
2022-11-16T02:10:40.247Z,10.78
2022-11-16T02:11:40.398Z,10.78
2022-11-16T02:12:40.566Z,10.78
2022-11-16T02:13:40.676Z,10.77
2022-11-16T02:14:40.776Z,10.76
2022-11-16T02:15:40.907Z,10.76
2022-11-16T02:16:41.055Z,10.75
2022-11-16T02:17:41.195Z,10.74
2022-11-16T02:18:41.474Z,10.73
2022-11-16T02:19:41.446Z,10.72
2022-11-16T02:20:41.595Z,10.72
2022-11-16T02:21:41.700Z,10.71
2022-11-16T02:22:41.838Z,10.71
2022-11-16T02:23:41.995Z,10.71
2022-11-16T02:24:42.113Z,10.70
2022-11-16T02:25:42.204Z,10.70
2022-11-16T02:26:42.325Z,10.69
2022-11-16T02:27:42.464Z,10.69
2022-11-16T02:28:42.603Z,10.69
2022-11-16T02:29:42.743Z,10.69
2022-11-16T02:30:42.874Z,10.68
2022-11-16T02:31:43.011Z,10.68
2022-11-16T02:32:43.182Z,10.67
2022-11-16T02:33:43.271Z,10.66
2022-11-16T02:34:43.418Z,10.65
2022-11-16T02:35:43.554Z,10.64
2022-11-16T02:36:43.708Z,10.64
2022-11-16T02:37:43.798Z,10.63
2022-11-16T02:38:43.959Z,10.63
2022-11-16T02:39:44.051Z,10.62
2022-11-16T02:40:44.173Z,10.61
2022-11-16T02:41:44.309Z,10.60
2022-11-16T02:42:44.476Z,10.59
2022-11-16T02:43:44.638Z,10.59
2022-11-16T02:44:44.708Z,10.58
2022-11-16T02:45:44.841Z,10.56
2022-11-16T02:46:44.989Z,10.55
2022-11-16T02:47:45.127Z,10.54
2022-11-16T02:48:45.278Z,10.54
2022-11-16T02:49:45.369Z,10.53
2022-11-16T02:50:45.508Z,10.53
2022-11-16T02:51:45.646Z,10.53
2022-11-16T02:52:45.795Z,10.52
2022-11-16T02:53:45.905Z,10.52
2022-11-16T02:54:45.987Z,10.51
2022-11-16T02:55:46.126Z,10.52
2022-11-16T02:56:46.256Z,10.52
2022-11-16T02:57:46.395Z,10.52
2022-11-16T02:58:46.585Z,10.51
2022-11-16T02:59:46.689Z,10.51
2022-11-16T03:00:46.865Z,10.51
2022-11-16T03:01:46.924Z,10.50
2022-11-16T03:02:47.052Z,10.50
2022-11-16T03:03:47.204Z,10.49
2022-11-16T03:04:47.327Z,10.48
2022-11-16T03:05:47.404Z,10.47
2022-11-16T03:06:47.568Z,10.46
2022-11-16T03:07:47.663Z,10.46
2022-11-16T03:08:47.813Z,10.46
2022-11-16T03:09:47.953Z,10.46
2022-11-16T03:10:48.094Z,10.46
2022-11-16T03:11:48.251Z,10.46
2022-11-16T03:12:48.417Z,10.45
2022-11-16T03:13:48.481Z,10.43
2022-11-16T03:14:48.615Z,10.42
2022-11-16T03:15:48.770Z,10.41
2022-11-16T03:16:48.852Z,10.41
2022-11-16T03:17:48.990Z,10.39
2022-11-16T03:18:49.201Z,10.38
2022-11-16T03:19:49.247Z,10.37
2022-11-16T03:20:49.361Z,10.37
2022-11-16T03:21:49.502Z,10.35
2022-11-16T03:22:49.629Z,10.33
2022-11-16T03:23:49.789Z,10.32
2022-11-16T03:24:49.878Z,10.30
2022-11-16T03:25:50.017Z,10.29
2022-11-16T03:26:50.166Z,10.27
2022-11-16T03:27:50.325Z,10.25
2022-11-16T03:28:50.421Z,10.24
2022-11-16T03:29:50.538Z,10.22
2022-11-16T03:30:50.637Z,10.21
2022-11-16T03:31:50.758Z,10.19
2022-11-16T03:32:50.951Z,10.18
2022-11-16T03:33:51.037Z,10.18
2022-11-16T03:34:51.178Z,10.17
2022-11-16T03:35:51.351Z,10.17
2022-11-16T03:36:51.461Z,10.16
2022-11-16T03:37:51.566Z,10.16
2022-11-16T03:38:51.717Z,10.15
2022-11-16T03:39:51.874Z,10.13
2022-11-16T03:40:51.980Z,10.12
2022-11-16T03:41:52.116Z,10.10
2022-11-16T03:42:52.257Z,10.09
2022-11-16T03:43:52.409Z,10.08
2022-11-16T03:44:52.545Z,10.07
2022-11-16T03:45:52.673Z,10.07
2022-11-16T03:46:52.794Z,10.06
2022-11-16T03:47:52.934Z,10.05
2022-11-16T03:48:53.095Z,10.03
2022-11-16T03:49:53.178Z,10.02
2022-11-16T03:50:53.337Z,10.01
2022-11-16T03:51:53.462Z,9.99
2022-11-16T03:52:53.568Z,9.98
2022-11-16T03:53:53.683Z,9.97
2022-11-16T03:54:53.786Z,9.97
2022-11-16T03:55:53.911Z,9.96
2022-11-16T03:56:54.001Z,9.96
2022-11-16T03:57:54.125Z,9.95
2022-11-16T03:58:54.303Z,9.93
2022-11-16T03:59:54.375Z,9.92
2022-11-16T04:00:54.518Z,9.90
2022-11-16T04:01:54.560Z,9.89
2022-11-16T04:02:54.681Z,9.89
2022-11-16T04:03:54.810Z,9.88
2022-11-16T04:04:54.911Z,9.88
2022-11-16T04:05:55.009Z,9.87
2022-11-16T04:06:55.160Z,9.87
2022-11-16T04:07:55.251Z,9.86
2022-11-16T04:08:55.367Z,9.85
2022-11-16T04:09:55.500Z,9.85
2022-11-16T04:10:55.608Z,9.85
2022-11-16T04:11:55.708Z,9.84
2022-11-16T04:12:55.818Z,9.84
2022-11-16T04:13:55.995Z,9.83
2022-11-16T04:14:56.048Z,9.83
2022-11-16T04:15:56.147Z,9.83
2022-11-16T04:16:56.268Z,9.83
2022-11-16T04:17:56.369Z,9.82
2022-11-16T04:18:56.537Z,9.82
2022-11-16T04:19:58.307Z,9.83
2022-11-16T04:20:56.697Z,9.83
2022-11-16T04:21:56.825Z,9.83
2022-11-16T04:22:56.937Z,9.84
2022-11-16T04:23:57.166Z,9.84
2022-11-16T04:24:57.145Z,9.85
2022-11-16T04:25:57.254Z,9.86
2022-11-16T04:26:57.376Z,9.86
2022-11-16T04:27:57.493Z,9.87
2022-11-16T04:28:57.605Z,9.87
2022-11-16T04:29:57.705Z,9.88
2022-11-16T04:30:57.814Z,9.88
2022-11-16T04:31:57.944Z,9.89
2022-11-16T04:32:58.054Z,9.89
2022-11-16T04:33:58.163Z,9.90
2022-11-16T04:34:58.273Z,9.91
2022-11-16T04:35:58.395Z,9.91
2022-11-16T04:36:58.483Z,9.92
2022-11-16T04:37:58.592Z,9.92
2022-11-16T04:38:58.714Z,9.92
2022-11-16T04:39:58.813Z,9.92
2022-11-16T04:40:58.943Z,9.91
2022-11-16T04:41:59.043Z,9.91
2022-11-16T04:42:59.173Z,9.90
2022-11-16T04:43:59.420Z,9.89
2022-11-16T04:44:59.378Z,9.88
2022-11-16T04:45:59.506Z,9.88
2022-11-16T04:46:59.592Z,9.87
2022-11-16T04:47:59.722Z,9.87
2022-11-16T04:48:59.851Z,9.85
2022-11-16T04:49:59.960Z,9.84
2022-11-16T04:51:00.061Z,9.83
2022-11-16T04:52:00.164Z,9.82
2022-11-16T04:53:00.323Z,9.81
2022-11-16T04:54:00.412Z,9.79
2022-11-16T04:55:00.530Z,9.77
2022-11-16T04:56:01.185Z,9.75
2022-11-16T04:57:00.769Z,9.74
2022-11-16T04:58:00.868Z,9.72
2022-11-16T04:59:01.008Z,9.70
2022-11-16T05:00:01.100Z,9.68
2022-11-16T05:01:01.245Z,9.66
2022-11-16T05:02:01.338Z,9.64
2022-11-16T05:03:02.003Z,9.61
2022-11-16T05:04:01.573Z,9.60
2022-11-16T05:05:01.677Z,9.59
2022-11-16T05:06:01.789Z,9.57
2022-11-16T05:07:01.916Z,9.56
2022-11-16T05:08:02.032Z,9.54
2022-11-16T05:09:02.150Z,9.52
2022-11-16T05:10:02.278Z,9.51
2022-11-16T05:11:02.369Z,9.49
2022-11-16T05:12:02.476Z,9.46
2022-11-16T05:13:02.654Z,9.43
2022-11-16T05:14:02.733Z,9.41
2022-11-16T05:15:02.817Z,9.39
2022-11-16T05:16:02.926Z,9.37
2022-11-16T05:17:03.059Z,9.34
2022-11-16T05:18:03.184Z,9.31
2022-11-16T05:19:03.354Z,9.29
2022-11-16T05:20:03.410Z,9.27
2022-11-16T05:21:03.525Z,9.25
2022-11-16T05:22:03.647Z,9.22
2022-11-16T05:23:03.748Z,9.19
2022-11-16T05:24:03.860Z,9.16
2022-11-16T05:25:03.963Z,9.14
2022-11-16T05:26:04.075Z,9.12
2022-11-16T05:27:04.192Z,9.09
2022-11-16T05:28:04.302Z,9.07
2022-11-16T05:29:04.422Z,9.05
2022-11-16T05:30:04.511Z,9.02
2022-11-16T05:31:04.640Z,9.01
2022-11-16T05:32:04.752Z,8.99
2022-11-16T05:33:04.955Z,8.97
2022-11-16T05:34:04.990Z,8.95
2022-11-16T05:35:05.090Z,8.93
2022-11-16T05:36:05.211Z,8.90
2022-11-16T05:37:05.321Z,8.88
2022-11-16T05:38:05.421Z,8.85
2022-11-16T05:39:05.563Z,8.84
2022-11-16T05:40:05.663Z,8.82
2022-11-16T05:41:05.779Z,8.81
2022-11-16T05:42:05.889Z,8.79
2022-11-16T05:43:06.004Z,8.78
2022-11-16T05:44:06.158Z,8.76
2022-11-16T05:45:06.217Z,8.75
2022-11-16T05:46:06.365Z,8.73
2022-11-16T05:47:06.478Z,8.71
2022-11-16T05:48:06.599Z,8.70
2022-11-16T05:49:06.752Z,8.69
2022-11-16T05:50:06.860Z,8.68
2022-11-16T05:51:06.967Z,8.67
2022-11-16T05:52:07.069Z,8.66
2022-11-16T05:53:07.196Z,8.65
2022-11-16T05:54:07.326Z,8.64
2022-11-16T05:55:07.446Z,8.63
2022-11-16T05:56:07.592Z,8.63
2022-11-16T05:57:07.645Z,8.62
2022-11-16T05:58:07.756Z,8.61
2022-11-16T05:59:11.208Z,8.60
2022-11-16T06:00:09.014Z,8.57
2022-11-16T06:01:08.084Z,8.55
2022-11-16T06:02:08.248Z,8.54
2022-11-16T06:03:08.367Z,8.53
2022-11-16T06:04:08.459Z,8.52
2022-11-16T06:05:08.574Z,8.51
2022-11-16T06:06:08.667Z,8.50
2022-11-16T06:07:08.831Z,8.49
2022-11-16T06:08:08.884Z,8.49
2022-11-16T06:09:09.012Z,8.48
2022-11-16T06:10:09.163Z,8.47
2022-11-16T06:11:09.237Z,8.47
2022-11-16T06:12:09.334Z,8.45
2022-11-16T06:13:09.492Z,8.44
2022-11-16T06:14:09.560Z,8.44
2022-11-16T06:15:09.679Z,8.43
2022-11-16T06:16:09.785Z,8.43
2022-11-16T06:17:09.881Z,8.41
2022-11-16T06:18:09.995Z,8.40
2022-11-16T06:19:10.130Z,8.40
2022-11-16T06:20:10.232Z,8.40
2022-11-16T06:21:10.338Z,8.39
2022-11-16T06:22:10.459Z,8.39
2022-11-16T06:23:10.567Z,8.38
2022-11-16T06:24:10.785Z,8.37
2022-11-16T06:25:10.833Z,8.37
2022-11-16T06:26:10.889Z,8.38
2022-11-16T06:27:11.038Z,8.38
2022-11-16T06:28:11.107Z,8.37
2022-11-16T06:29:11.301Z,8.37
2022-11-16T06:30:11.348Z,8.36
2022-11-16T06:31:11.439Z,8.35
2022-11-16T06:32:11.553Z,8.35
2022-11-16T06:33:11.708Z,8.34
2022-11-16T06:34:11.818Z,8.34
2022-11-16T06:35:11.896Z,8.33
2022-11-16T06:36:11.993Z,8.32
2022-11-16T06:37:12.095Z,8.31
2022-11-16T06:38:12.215Z,8.30
2022-11-16T06:39:12.416Z,8.29
2022-11-16T06:40:12.414Z,8.28
2022-11-16T06:41:12.525Z,8.27
2022-11-16T06:42:12.646Z,8.27
2022-11-16T06:43:12.780Z,8.27
2022-11-16T06:44:12.903Z,8.26
2022-11-16T06:45:12.976Z,8.25
2022-11-16T06:46:13.075Z,8.23
2022-11-16T06:47:13.204Z,8.22
2022-11-16T06:48:13.305Z,8.20
2022-11-16T06:49:13.467Z,8.19
2022-11-16T06:50:13.518Z,8.18
2022-11-16T06:51:13.628Z,8.17
2022-11-16T06:52:13.740Z,8.16
2022-11-16T06:53:13.921Z,8.15
2022-11-16T06:54:14.005Z,8.14
2022-11-16T06:55:14.105Z,8.14
2022-11-16T06:56:14.203Z,8.14
2022-11-16T06:57:14.306Z,8.14
2022-11-16T06:58:14.445Z,8.14
2022-11-16T06:59:14.589Z,8.14
2022-11-16T07:00:14.661Z,8.14
2022-11-16T07:01:14.840Z,8.14
2022-11-16T07:02:14.916Z,8.13
2022-11-16T07:03:14.983Z,8.12
2022-11-16T07:04:15.113Z,8.11
2022-11-16T07:05:15.219Z,8.09
2022-11-16T07:06:15.310Z,8.08
2022-11-16T07:07:15.501Z,8.07
2022-11-16T07:08:15.540Z,8.04
2022-11-16T07:09:15.668Z,8.02
2022-11-16T07:10:15.731Z,8.00
2022-11-16T07:11:15.830Z,7.99
2022-11-16T07:12:15.945Z,7.97
2022-11-16T07:13:16.658Z,7.95
2022-11-16T07:14:16.198Z,7.94
2022-11-16T07:15:16.317Z,7.94
2022-11-16T07:16:16.425Z,7.94
2022-11-16T07:17:16.572Z,7.94
2022-11-16T07:18:16.655Z,7.93
2022-11-16T07:19:17.767Z,7.93
2022-11-16T07:20:16.875Z,7.93
2022-11-16T07:21:17.003Z,7.93
2022-11-16T07:22:17.156Z,7.93
2022-11-16T07:23:17.237Z,7.94
2022-11-16T07:24:17.428Z,7.94
2022-11-16T07:25:17.472Z,7.93
2022-11-16T07:26:17.549Z,7.92
2022-11-16T07:27:17.674Z,7.92
2022-11-16T07:28:17.775Z,7.92
2022-11-16T07:29:18.012Z,7.91
2022-11-16T07:30:18.039Z,7.90
2022-11-16T07:31:18.125Z,7.88
2022-11-16T07:32:19.203Z,7.88
2022-11-16T07:33:18.474Z,7.88
2022-11-16T07:34:18.500Z,7.88
2022-11-16T07:35:18.582Z,7.89
2022-11-16T07:36:18.710Z,7.90
2022-11-16T07:37:18.830Z,7.91
2022-11-16T07:38:18.931Z,7.91
2022-11-16T07:39:19.134Z,7.90
2022-11-16T07:40:19.139Z,7.89
2022-11-16T07:41:19.295Z,7.90
2022-11-16T07:42:19.361Z,7.91
2022-11-16T07:43:19.508Z,7.92
2022-11-16T07:44:19.607Z,7.94
2022-11-16T07:45:19.703Z,7.96
2022-11-16T07:47:20.928Z,7.98
2022-11-16T07:48:20.046Z,7.98
2022-11-16T07:49:20.179Z,7.96
2022-11-16T07:50:20.286Z,7.95
2022-11-16T07:51:20.401Z,7.94
2022-11-16T07:52:20.488Z,7.92
2022-11-16T07:53:20.669Z,7.91
2022-11-16T07:54:20.735Z,7.91
2022-11-16T07:55:20.823Z,7.92
2022-11-16T07:56:21.003Z,7.93
2022-11-16T07:57:21.086Z,7.94
2022-11-16T07:58:21.224Z,7.94
2022-11-16T07:59:21.334Z,7.93
2022-11-16T08:00:21.425Z,7.93
2022-11-16T08:01:21.581Z,7.93
2022-11-16T08:02:21.677Z,7.93
2022-11-16T08:03:24.655Z,7.96
2022-11-16T08:04:21.908Z,7.98
2022-11-16T08:05:22.024Z,8.03
2022-11-16T08:06:22.113Z,8.07
2022-11-16T08:07:22.227Z,8.12
2022-11-16T08:08:22.340Z,8.17
2022-11-16T08:09:22.471Z,8.21
2022-11-16T08:10:22.678Z,8.25
2022-11-16T08:11:22.712Z,8.29
2022-11-16T08:12:22.829Z,8.32
2022-11-16T08:13:22.982Z,8.36
2022-11-16T08:14:23.072Z,8.40
2022-11-16T08:15:23.183Z,8.43
2022-11-16T08:16:23.271Z,8.46
2022-11-16T08:17:23.434Z,8.49
2022-11-16T08:18:24.472Z,8.51
2022-11-16T08:19:23.708Z,8.53
2022-11-16T08:20:23.799Z,8.55
2022-11-16T08:21:23.976Z,8.56
2022-11-16T08:22:24.058Z,8.56
2022-11-16T08:23:24.209Z,8.57
2022-11-16T08:24:24.319Z,8.58
2022-11-16T08:25:24.496Z,8.59
2022-11-16T08:26:24.544Z,8.61
2022-11-16T08:27:24.706Z,8.62
2022-11-16T08:28:24.830Z,8.62
2022-11-16T08:29:25.057Z,8.63
2022-11-16T08:30:25.084Z,8.63
2022-11-16T08:31:25.278Z,8.64
2022-11-16T08:32:25.370Z,8.64
2022-11-16T08:33:25.598Z,8.62
2022-11-16T08:34:25.656Z,8.62
2022-11-16T08:35:25.760Z,8.62
2022-11-16T08:36:25.886Z,8.62
2022-11-16T08:37:26.015Z,8.62
2022-11-16T08:38:26.188Z,8.61
2022-11-16T08:39:26.323Z,8.61
2022-11-16T08:40:26.439Z,8.61
2022-11-16T08:41:26.533Z,8.62
2022-11-16T08:42:26.668Z,8.62
2022-11-16T08:43:26.804Z,8.63
2022-11-16T08:44:26.976Z,8.64
2022-11-16T08:45:27.065Z,8.64
2022-11-16T08:46:27.213Z,8.63
2022-11-16T08:47:27.345Z,8.63
2022-11-16T08:48:27.487Z,8.64
2022-11-16T08:49:27.652Z,8.66
2022-11-16T08:50:27.735Z,8.70
2022-11-16T08:51:27.861Z,8.73
2022-11-16T08:52:27.990Z,8.76
2022-11-16T08:53:28.240Z,8.78
2022-11-16T08:54:28.313Z,8.80
2022-11-16T08:55:28.401Z,8.82
2022-11-16T08:56:29.498Z,8.84
2022-11-16T08:57:28.680Z,8.85
2022-11-16T08:58:28.829Z,8.86
2022-11-16T08:59:28.968Z,8.88
2022-11-16T09:00:29.074Z,8.91
2022-11-16T09:01:29.366Z,8.94
2022-11-16T09:02:29.348Z,8.97
2022-11-16T09:03:29.498Z,9.00
2022-11-16T09:04:34.069Z,9.02
2022-11-16T09:05:30.757Z,9.04
2022-11-16T09:06:29.881Z,9.05
2022-11-16T09:07:30.083Z,9.07
2022-11-16T09:08:30.156Z,9.10
2022-11-16T09:09:30.315Z,9.14
2022-11-16T09:10:30.431Z,9.18
2022-11-16T09:11:30.716Z,9.22
2022-11-16T09:12:30.684Z,9.26
2022-11-16T09:13:32.448Z,9.29
2022-11-16T09:14:30.970Z,9.32
2022-11-16T09:15:31.055Z,9.35
2022-11-16T09:16:31.224Z,9.38
2022-11-16T09:17:31.330Z,9.41
2022-11-16T09:18:31.766Z,9.42
2022-11-16T09:19:31.744Z,9.42
2022-11-16T09:20:31.734Z,9.43
2022-11-16T09:21:31.895Z,9.44
2022-11-16T09:22:31.993Z,9.47
2022-11-16T09:23:32.122Z,9.48
2022-11-16T09:24:32.287Z,9.49
2022-11-16T09:25:32.402Z,9.52
2022-11-16T09:26:32.545Z,9.55
2022-11-16T09:27:32.644Z,9.59
2022-11-16T09:28:33.140Z,9.64
2022-11-16T09:29:32.940Z,9.69
2022-11-16T09:30:33.042Z,9.73
2022-11-16T09:31:33.118Z,9.75
2022-11-16T09:32:33.261Z,9.78
2022-11-16T09:33:33.670Z,9.81
2022-11-16T09:34:33.700Z,9.86
2022-11-16T09:35:33.681Z,9.90
2022-11-16T09:36:33.851Z,9.93
2022-11-16T09:37:33.934Z,9.93
2022-11-16T09:38:54.259Z,9.94
2022-11-16T09:39:35.210Z,9.96
2022-11-16T09:40:34.343Z,9.98
2022-11-16T09:41:34.438Z,10.03
2022-11-16T09:42:34.559Z,10.08
2022-11-16T09:43:35.945Z,10.13
2022-11-16T09:44:34.808Z,10.19
2022-11-16T09:45:34.996Z,10.24
2022-11-16T09:46:34.998Z,10.28
2022-11-16T09:47:35.157Z,10.33
2022-11-16T09:48:35.276Z,10.39
2022-11-16T09:49:35.388Z,10.45
2022-11-16T09:50:35.503Z,10.50
2022-11-16T09:51:35.635Z,10.54
2022-11-16T09:52:35.798Z,10.56
2022-11-16T09:53:36.418Z,10.59
2022-11-16T09:54:36.017Z,10.60
2022-11-16T09:55:36.106Z,10.59
2022-11-16T09:56:36.274Z,10.61
2022-11-16T09:57:36.399Z,10.62
2022-11-16T09:58:36.780Z,10.62
2022-11-16T09:59:36.654Z,10.64
2022-11-16T10:00:36.819Z,10.66
2022-11-16T10:01:36.884Z,10.67
2022-11-16T10:02:36.985Z,10.66
2022-11-16T10:03:37.289Z,10.66
2022-11-16T10:04:37.247Z,10.68
2022-11-16T10:05:37.352Z,10.71
2022-11-16T10:06:37.472Z,10.75
2022-11-16T10:07:37.596Z,10.79
2022-11-16T10:08:37.688Z,10.83
2022-11-16T10:09:37.848Z,10.87
2022-11-16T10:10:37.942Z,10.91
2022-11-16T10:11:38.062Z,10.92
2022-11-16T10:12:38.170Z,10.94
2022-11-16T10:13:38.265Z,10.95
2022-11-16T10:14:38.453Z,10.97
2022-11-16T10:15:38.561Z,11.00
2022-11-16T10:16:38.656Z,11.04
2022-11-16T10:17:38.757Z,11.10
2022-11-16T10:18:38.895Z,11.15
2022-11-16T10:19:39.015Z,11.18
2022-11-16T10:20:39.148Z,11.20
2022-11-16T10:21:39.195Z,11.22
2022-11-16T10:22:39.369Z,11.25
2022-11-16T10:23:39.469Z,11.29
2022-11-16T10:24:39.619Z,11.31
2022-11-16T10:25:39.669Z,11.31
2022-11-16T10:26:39.838Z,11.29
2022-11-16T10:27:39.910Z,11.28
2022-11-16T10:28:40.034Z,11.29
2022-11-16T10:29:40.198Z,11.32
2022-11-16T10:30:40.304Z,11.34
2022-11-16T10:31:40.387Z,11.33
2022-11-16T10:32:40.440Z,11.34
2022-11-16T10:33:40.587Z,11.36
2022-11-16T10:34:40.749Z,11.37
2022-11-16T10:35:40.807Z,11.39
2022-11-16T10:36:40.905Z,11.42
2022-11-16T10:37:40.995Z,11.44
2022-11-16T10:38:41.121Z,11.46
2022-11-16T10:39:41.274Z,11.48
2022-11-16T10:40:41.348Z,11.52
2022-11-16T10:41:41.508Z,11.54
2022-11-16T10:42:41.578Z,11.55
2022-11-16T10:43:41.695Z,11.53
2022-11-16T10:44:41.865Z,11.52
2022-11-16T10:45:41.926Z,11.54
2022-11-16T10:46:42.063Z,11.54
2022-11-16T10:47:42.165Z,11.53
2022-11-16T10:48:42.283Z,11.57
2022-11-16T10:49:42.473Z,11.62
2022-11-16T10:50:42.542Z,11.64
2022-11-16T10:51:42.653Z,11.65
2022-11-16T10:52:42.752Z,11.67
2022-11-16T10:53:42.930Z,11.69
2022-11-16T10:54:44.599Z,11.71
2022-11-16T10:55:43.125Z,11.73
2022-11-16T10:56:43.295Z,11.72
2022-11-16T10:57:43.331Z,11.69
2022-11-16T10:58:43.441Z,11.68
2022-11-16T10:59:43.558Z,11.70
2022-11-16T11:00:43.794Z,11.75
2022-11-16T11:01:43.809Z,11.79
2022-11-16T11:02:43.898Z,11.79
2022-11-16T11:03:44.049Z,11.79
2022-11-16T11:04:44.178Z,11.81
2022-11-16T11:05:44.289Z,11.85
2022-11-16T11:06:44.469Z,11.90
2022-11-16T11:07:44.534Z,11.97
2022-11-16T11:08:44.619Z,12.04
2022-11-16T11:09:44.745Z,12.09
2022-11-16T11:10:44.922Z,12.14
2022-11-16T11:11:44.943Z,12.13
2022-11-16T11:12:45.076Z,12.07
2022-11-16T11:13:45.216Z,12.03
2022-11-16T11:14:45.398Z,12.02
2022-11-16T11:15:45.505Z,12.04
2022-11-16T11:16:45.608Z,12.05
2022-11-16T11:17:45.749Z,12.07
2022-11-16T11:18:45.927Z,12.14
2022-11-16T11:19:45.986Z,12.19
2022-11-16T11:20:46.172Z,12.22
2022-11-16T11:21:46.275Z,12.23
2022-11-16T11:22:46.401Z,12.25
2022-11-16T11:23:46.518Z,12.28
2022-11-16T11:24:46.606Z,12.30
2022-11-16T11:25:46.798Z,12.29
2022-11-16T11:26:46.890Z,12.29
2022-11-16T11:27:47.010Z,12.27
2022-11-16T11:28:47.112Z,12.23
2022-11-16T11:29:47.205Z,12.19
2022-11-16T11:30:47.385Z,12.17
2022-11-16T11:31:47.457Z,12.18
2022-11-16T11:32:47.544Z,12.21
2022-11-16T11:33:47.684Z,12.26
2022-11-16T11:34:47.846Z,12.32
2022-11-16T11:35:47.987Z,12.33
2022-11-16T11:36:48.108Z,12.30
2022-11-16T11:37:48.182Z,12.27
2022-11-16T11:38:48.284Z,12.22
2022-11-16T11:39:48.473Z,12.13
2022-11-16T11:40:48.632Z,12.05
2022-11-16T11:41:48.663Z,11.98
2022-11-16T11:42:48.772Z,11.93
2022-11-16T11:43:48.871Z,11.89
2022-11-16T11:44:49.054Z,11.88
2022-11-16T11:45:49.216Z,11.91
2022-11-16T11:47:35.026Z,11.99
2022-11-16T11:47:57.812Z,12.11
2022-11-16T11:48:50.567Z,12.23
2022-11-16T11:49:49.743Z,12.33
2022-11-16T11:50:49.866Z,12.40
2022-11-16T11:51:49.981Z,12.49
2022-11-16T11:52:50.090Z,12.61
2022-11-16T11:53:50.185Z,12.76
2022-11-16T11:54:50.338Z,12.88
2022-11-16T11:55:50.450Z,12.98
2022-11-16T11:56:50.570Z,13.08
2022-11-16T11:57:50.701Z,13.18
2022-11-16T11:58:50.820Z,13.21
2022-11-16T11:59:50.922Z,13.15
2022-11-16T12:00:51.048Z,13.08
2022-11-16T12:01:51.156Z,13.02
2022-11-16T12:02:51.257Z,12.99
2022-11-16T12:03:51.407Z,13.01
2022-11-16T12:04:51.507Z,13.08
2022-11-16T12:05:51.658Z,13.14
2022-11-16T12:06:51.882Z,13.19
2022-11-16T12:07:51.879Z,13.22
2022-11-16T12:08:51.985Z,13.25
2022-11-16T12:09:52.089Z,13.27
2022-11-16T12:10:52.276Z,13.29
2022-11-16T12:11:52.347Z,13.32
2022-11-16T12:12:52.489Z,13.33
2022-11-16T12:13:52.576Z,13.29
2022-11-16T12:14:52.695Z,13.25
2022-11-16T12:15:52.836Z,13.23
2022-11-16T12:16:52.924Z,13.23
2022-11-16T12:17:53.065Z,13.23
2022-11-16T12:18:53.165Z,13.23
2022-11-16T12:19:53.326Z,13.25
2022-11-16T12:20:53.494Z,13.24
2022-11-16T12:21:53.576Z,13.21
2022-11-16T12:22:53.723Z,13.19
2022-11-16T12:23:53.825Z,13.18
2022-11-16T12:24:53.925Z,13.17
2022-11-16T12:25:54.124Z,13.18
2022-11-16T12:26:54.253Z,13.20
2022-11-16T12:27:54.287Z,13.19
2022-11-16T12:28:54.421Z,13.18
2022-11-16T12:29:54.580Z,13.14
2022-11-16T12:30:54.733Z,13.08
2022-11-16T12:31:54.859Z,13.07
2022-11-16T12:32:54.942Z,13.12
2022-11-16T12:33:55.096Z,13.20
2022-11-16T12:34:55.192Z,13.28
2022-11-16T12:35:55.329Z,13.37
2022-11-16T12:36:55.380Z,13.46
2022-11-16T12:37:55.481Z,13.53
2022-11-16T12:38:55.569Z,13.58
2022-11-16T12:39:55.714Z,13.60
2022-11-16T12:40:55.831Z,13.61
2022-11-16T12:41:55.931Z,13.64
2022-11-16T12:42:56.043Z,13.65
2022-11-16T12:43:56.142Z,13.62
2022-11-16T12:44:56.289Z,13.56
2022-11-16T12:45:56.467Z,13.47
2022-11-16T12:46:56.558Z,13.39
2022-11-16T12:47:56.651Z,13.32
2022-11-16T12:48:56.759Z,13.24
2022-11-16T12:49:56.906Z,13.15
2022-11-16T12:50:56.991Z,13.07
2022-11-16T12:51:57.094Z,12.99
2022-11-16T12:52:57.196Z,12.91
2022-11-16T12:53:57.316Z,12.83
2022-11-16T12:55:24.744Z,12.79
2022-11-16T12:55:58.557Z,12.73
2022-11-16T12:56:57.640Z,12.70
2022-11-16T12:57:57.799Z,12.65
2022-11-16T12:58:57.901Z,12.58
2022-11-16T12:59:57.986Z,12.51
2022-11-16T13:00:58.239Z,12.46
2022-11-16T13:02:00.626Z,12.41
2022-11-16T13:02:58.376Z,12.36
2022-11-16T13:03:58.484Z,12.32
2022-11-16T13:04:58.570Z,12.30
2022-11-16T13:05:58.745Z,12.28